createdAt,value
2022-09-10T00:00:45.994Z,1.50
2022-09-10T00:03:13.627Z,1.80
2022-09-10T00:05:41.480Z,1.83
2022-09-10T00:08:09.199Z,1.60
2022-09-10T00:10:40.178Z,1.57
2022-09-10T00:13:08.061Z,1.93
2022-09-10T00:15:40.027Z,2.63
2022-09-10T00:18:08.866Z,3.70
2022-09-10T00:20:36.655Z,3.10
2022-09-10T00:23:04.781Z,2.47
2022-09-10T00:25:32.805Z,2.43
2022-09-10T00:28:01.019Z,2.23
2022-09-10T00:30:28.478Z,2.20
2022-09-10T00:32:57.243Z,1.90
2022-09-10T00:35:24.598Z,2.13
2022-09-10T00:37:52.206Z,2.20
2022-09-10T00:40:19.974Z,2.00
2022-09-10T00:42:47.392Z,1.53
2022-09-10T00:45:17.243Z,1.80
2022-09-10T00:47:46.954Z,1.80
2022-09-10T00:50:20.162Z,2.13
2022-09-10T00:52:48.337Z,2.73
2022-09-10T00:55:16.746Z,2.37
2022-09-10T00:57:46.108Z,2.60
2022-09-10T01:00:13.929Z,2.40
2022-09-10T01:02:41.474Z,2.27
2022-09-10T01:05:09.980Z,2.13
2022-09-10T01:07:39.103Z,2.20
2022-09-10T01:10:08.394Z,1.70
2022-09-10T01:12:47.272Z,1.73
2022-09-10T01:15:20.059Z,1.70
2022-09-10T01:17:56.071Z,1.77
2022-09-10T01:20:41.323Z,1.70
2022-09-10T01:23:23.579Z,1.80
2022-09-10T01:25:58.462Z,1.70
2022-09-10T01:28:30.466Z,1.70
2022-09-10T01:31:02.503Z,1.80
2022-09-10T01:33:34.036Z,1.70
2022-09-10T01:36:02.828Z,1.70
2022-09-10T01:38:31.860Z,1.67
2022-09-10T01:40:59.600Z,1.50
2022-09-10T01:43:28.455Z,1.60
2022-09-10T01:46:03.162Z,1.50
2022-09-10T01:48:39.900Z,1.70
2022-09-10T01:51:12.611Z,1.60
2022-09-10T01:54:01.039Z,1.43
2022-09-10T01:56:35.590Z,1.70
2022-09-10T01:59:09.135Z,1.80
2022-09-10T02:01:39.515Z,1.40
2022-09-10T02:04:09.832Z,1.83
2022-09-10T02:06:38.850Z,1.70
2022-09-10T02:09:07.378Z,1.57
2022-09-10T02:11:44.195Z,1.40
2022-09-10T02:14:14.125Z,1.83
2022-09-10T02:16:44.094Z,1.60
2022-09-10T02:19:11.620Z,1.50
2022-09-10T02:21:39.188Z,1.50
2022-09-10T02:24:08.187Z,1.40
2022-09-10T02:26:36.996Z,1.47
2022-09-10T02:29:06.037Z,1.60
2022-09-10T02:31:35.428Z,1.30
2022-09-10T02:34:03.263Z,1.57
2022-09-10T02:36:31.712Z,1.60
2022-09-10T02:38:59.360Z,1.50
2022-09-10T02:41:27.561Z,1.43
2022-09-10T02:43:55.400Z,1.47
2022-09-10T02:46:23.753Z,1.60
2022-09-10T02:48:54.899Z,1.40
2022-09-10T02:51:22.342Z,1.47
2022-09-10T02:53:50.178Z,1.50
2022-09-10T02:56:19.459Z,1.67
2022-09-10T02:58:47.298Z,1.53
2022-09-10T03:01:15.683Z,1.77
2022-09-10T03:03:43.646Z,1.40
2022-09-10T03:06:12.370Z,1.37
2022-09-10T03:08:39.845Z,1.40
2022-09-10T03:11:08.093Z,1.47
2022-09-10T03:13:35.784Z,1.40
2022-09-10T03:16:04.193Z,1.30
2022-09-10T03:18:31.968Z,1.30
2022-09-10T03:21:09.078Z,1.47
2022-09-10T03:23:37.834Z,1.37
2022-09-10T03:26:06.102Z,1.20
2022-09-10T03:28:33.923Z,1.30
2022-09-10T03:31:01.414Z,1.70
2022-09-10T03:33:28.783Z,1.30
2022-09-10T03:35:56.232Z,1.30
2022-09-10T03:38:23.713Z,1.27
2022-09-10T03:40:53.019Z,1.07
2022-09-10T03:43:22.394Z,1.30
2022-09-10T03:45:50.224Z,1.43
2022-09-10T03:48:17.713Z,1.43
2022-09-10T03:50:45.177Z,1.43
2022-09-10T03:53:12.893Z,1.40
2022-09-10T03:55:40.278Z,1.50
2022-09-10T03:58:08.983Z,1.57
2022-09-10T04:00:36.715Z,1.40
2022-09-10T04:03:05.375Z,1.40
2022-09-10T04:05:33.271Z,1.10
2022-09-10T04:08:01.926Z,1.73
2022-09-10T04:10:29.435Z,1.40
2022-09-10T04:12:56.854Z,1.30
2022-09-10T04:15:25.830Z,1.40
2022-09-10T04:17:54.589Z,1.13
2022-09-10T04:20:22.363Z,1.13
2022-09-10T04:22:51.482Z,1.20
2022-09-10T04:25:18.961Z,1.20
2022-09-10T04:27:46.570Z,1.33
2022-09-10T04:30:14.384Z,1.77
2022-09-10T04:32:44.305Z,1.40
2022-09-10T04:35:13.193Z,1.20
2022-09-10T04:37:40.576Z,1.30
2022-09-10T04:40:09.327Z,1.10
2022-09-10T04:42:36.775Z,1.30
2022-09-10T04:45:04.384Z,1.20
2022-09-10T04:47:31.789Z,1.33
2022-09-10T04:50:00.593Z,1.30
2022-09-10T04:52:28.874Z,1.27
2022-09-10T04:54:56.342Z,1.40
2022-09-10T04:57:24.243Z,1.30
2022-09-10T04:59:52.908Z,1.40
2022-09-10T05:02:20.364Z,1.30
2022-09-10T05:04:47.869Z,1.43
2022-09-10T05:07:16.599Z,1.20
2022-09-10T05:09:43.989Z,1.50
2022-09-10T05:12:11.342Z,1.50
2022-09-10T05:14:39.076Z,1.63
2022-09-10T05:17:06.507Z,1.60
2022-09-10T05:19:33.958Z,1.20
2022-09-10T05:22:01.320Z,1.30
2022-09-10T05:24:30.055Z,1.50
2022-09-10T05:26:59.171Z,1.20
2022-09-10T05:29:27.484Z,1.10
2022-09-10T05:31:55.229Z,1.57
2022-09-10T05:34:22.636Z,1.20
2022-09-10T05:36:50.015Z,1.80
2022-09-10T05:39:17.501Z,1.73
2022-09-10T05:41:46.274Z,1.70
2022-09-10T05:44:15.122Z,1.50
2022-09-10T05:46:42.557Z,1.87
2022-09-10T05:49:10.170Z,1.50
2022-09-10T05:51:37.549Z,1.63
2022-09-10T05:54:04.983Z,1.43
2022-09-10T05:56:32.673Z,1.40
2022-09-10T05:59:01.370Z,1.43
2022-09-10T06:01:29.230Z,1.30
2022-09-10T06:03:56.635Z,1.50
2022-09-10T06:06:24.809Z,1.40
2022-09-10T06:08:53.366Z,1.60
2022-09-10T06:11:20.829Z,1.27
2022-09-10T06:13:48.337Z,1.47
2022-09-10T06:16:17.288Z,1.73
2022-09-10T06:18:44.961Z,1.40
2022-09-10T06:21:13.543Z,1.47
2022-09-10T06:23:40.953Z,1.50
2022-09-10T06:26:09.203Z,1.40
2022-09-10T06:28:36.829Z,1.40
2022-09-10T06:31:05.589Z,1.30
2022-09-10T06:33:34.823Z,1.20
2022-09-10T06:36:03.282Z,1.50
2022-09-10T06:38:33.099Z,1.77
2022-09-10T06:41:01.504Z,1.60
2022-09-10T06:43:32.400Z,1.93
2022-09-10T06:45:59.958Z,1.60
2022-09-10T06:48:47.892Z,1.50
2022-09-10T06:51:17.750Z,1.40
2022-09-10T06:53:46.995Z,1.60
2022-09-10T06:56:15.112Z,1.50
2022-09-10T06:58:42.502Z,1.37
2022-09-10T07:01:13.467Z,1.30
2022-09-10T07:03:41.196Z,1.30
2022-09-10T07:06:10.869Z,1.33
2022-09-10T07:08:40.235Z,1.20
2022-09-10T07:11:08.706Z,1.40
2022-09-10T07:13:36.325Z,1.30
2022-09-10T07:16:04.025Z,1.50
2022-09-10T07:18:31.943Z,1.50
2022-09-10T07:21:07.306Z,1.20
2022-09-10T07:23:35.166Z,1.40
2022-09-10T07:26:05.686Z,1.53
2022-09-10T07:28:33.197Z,1.60
2022-09-10T07:31:00.609Z,1.40
2022-09-10T07:33:28.710Z,1.70
2022-09-10T07:35:56.087Z,1.70
2022-09-10T07:38:23.478Z,1.60
2022-09-10T07:40:52.708Z,1.20
2022-09-10T07:43:21.415Z,1.50
2022-09-10T07:45:49.055Z,1.47
2022-09-10T07:48:16.483Z,1.40
2022-09-10T07:50:43.916Z,1.40
2022-09-10T07:53:11.305Z,1.47
2022-09-10T07:55:38.731Z,1.37
2022-09-10T07:58:06.306Z,1.40
2022-09-10T08:00:35.082Z,1.33
2022-09-10T08:03:03.083Z,2.60
2022-09-10T08:05:31.062Z,1.33
2022-09-10T08:07:59.163Z,1.20
2022-09-10T08:10:27.098Z,1.50
2022-09-10T08:12:54.512Z,1.10
2022-09-10T08:15:22.166Z,1.40
2022-09-10T08:17:51.080Z,1.33
2022-09-10T08:20:18.568Z,1.20
2022-09-10T08:22:46.443Z,1.27
2022-09-10T08:25:13.816Z,1.10
2022-09-10T08:27:42.056Z,1.17
2022-09-10T08:30:10.077Z,1.40
2022-09-10T08:32:37.483Z,1.40
2022-09-10T08:35:06.530Z,1.20
2022-09-10T08:37:34.174Z,1.60
2022-09-10T08:40:01.934Z,1.60
2022-09-10T08:42:33.159Z,1.37
2022-09-10T08:45:04.271Z,1.57
2022-09-10T08:47:34.346Z,1.50
2022-09-10T08:50:05.031Z,1.30
2022-09-10T08:52:37.464Z,1.40
2022-09-10T08:55:10.028Z,2.03
2022-09-10T08:57:40.192Z,1.40
2022-09-10T09:00:08.685Z,1.33
2022-09-10T09:02:49.260Z,1.40
2022-09-10T09:05:17.855Z,1.50
2022-09-10T09:07:48.302Z,1.63
2022-09-10T09:10:19.197Z,1.60
2022-09-10T09:12:52.996Z,1.80
2022-09-10T09:15:22.575Z,1.30
2022-09-10T09:17:56.171Z,1.80
2022-09-10T09:20:27.955Z,1.47
2022-09-10T09:22:58.095Z,1.27
2022-09-10T09:25:27.170Z,1.70
2022-09-10T09:27:56.213Z,1.90
2022-09-10T09:30:25.039Z,2.00
2022-09-10T09:32:52.515Z,1.80
2022-09-10T09:35:23.697Z,1.90
2022-09-10T09:37:52.098Z,2.50
2022-09-10T09:40:26.706Z,2.00
2022-09-10T09:42:56.187Z,1.93
2022-09-10T09:45:26.211Z,2.03
2022-09-10T09:47:54.476Z,1.70
2022-09-10T09:50:22.812Z,1.90
2022-09-10T09:52:51.445Z,2.30
2022-09-10T09:55:23.926Z,2.30
2022-09-10T09:57:58.303Z,2.50
2022-09-10T10:00:37.748Z,2.30
2022-09-10T10:03:07.640Z,2.07
2022-09-10T10:05:35.188Z,2.30
2022-09-10T10:08:02.746Z,2.13
2022-09-10T10:10:31.503Z,2.60
2022-09-10T10:12:58.961Z,2.50
2022-09-10T10:15:37.187Z,2.50
2022-09-10T10:18:24.737Z,2.07
2022-09-10T10:21:10.868Z,2.40
2022-09-10T10:23:38.890Z,2.47
2022-09-10T10:26:16.813Z,2.53
2022-09-10T10:28:46.339Z,2.70
2022-09-10T10:31:14.263Z,2.33
2022-09-10T10:33:47.167Z,2.97
2022-09-10T10:36:16.415Z,2.60
2022-09-10T10:38:45.907Z,2.60
2022-09-10T10:41:37.348Z,2.80
2022-09-10T10:44:12.636Z,2.80
2022-09-10T10:46:45.103Z,2.63
2022-09-10T10:49:21.930Z,2.70
2022-09-10T10:51:52.334Z,2.50
2022-09-10T10:54:33.464Z,2.70
2022-09-10T10:57:03.816Z,2.93
2022-09-10T10:59:44.582Z,3.00
2022-09-10T11:02:14.745Z,2.90
2022-09-10T11:04:44.779Z,2.70
2022-09-10T11:07:14.439Z,3.30
2022-09-10T11:09:45.202Z,3.00
2022-09-10T11:12:14.613Z,3.07
2022-09-10T11:14:45.618Z,3.40
2022-09-10T11:17:14.481Z,2.80
2022-09-10T11:19:44.211Z,2.47
2022-09-10T11:22:14.560Z,2.80
2022-09-10T11:24:43.995Z,2.83
2022-09-10T11:27:14.257Z,2.73
2022-09-10T11:29:45.190Z,3.83
2022-09-10T11:32:15.912Z,2.37
2022-09-10T11:34:49.830Z,2.20
2022-09-10T11:37:20.722Z,2.53
2022-09-10T11:39:49.741Z,1.73
2022-09-10T11:42:20.454Z,2.53
2022-09-10T11:44:54.598Z,2.50
2022-09-10T11:47:23.798Z,2.70
2022-09-10T11:49:53.470Z,3.10
2022-09-10T11:52:22.988Z,3.60
2022-09-10T11:54:50.463Z,3.27
2022-09-10T11:57:23.512Z,3.60
2022-09-10T12:00:07.494Z,3.73
2022-09-10T12:02:53.458Z,4.60
2022-09-10T12:05:27.627Z,3.70
2022-09-10T12:07:58.670Z,4.37
2022-09-10T12:10:31.593Z,4.63
2022-09-10T12:12:59.352Z,3.53
2022-09-10T12:15:27.808Z,3.77
2022-09-10T12:17:56.635Z,4.00
2022-09-10T12:20:28.514Z,4.00
2022-09-10T12:22:56.450Z,4.00
2022-09-10T12:25:30.404Z,4.10
2022-09-10T12:28:01.294Z,4.17
2022-09-10T12:30:58.928Z,4.70
2022-09-10T12:33:36.635Z,5.00
2022-09-10T12:36:05.488Z,4.73
2022-09-10T12:38:49.118Z,4.40
2022-09-10T12:41:35.391Z,4.80
2022-09-10T12:44:04.528Z,4.60
2022-09-10T12:46:32.336Z,5.27
2022-09-10T12:49:07.396Z,5.20
2022-09-10T12:51:42.586Z,5.00
2022-09-10T12:54:26.431Z,4.47
2022-09-10T12:57:08.100Z,4.97
2022-09-10T12:59:56.335Z,5.50
2022-09-10T13:02:28.964Z,4.80
2022-09-10T13:04:58.391Z,5.20
2022-09-10T13:07:31.589Z,5.40
2022-09-10T13:10:01.233Z,4.87
2022-09-10T13:12:29.580Z,5.17
2022-09-10T13:14:57.716Z,5.70
2022-09-10T13:17:38.558Z,6.50
2022-09-10T13:20:16.370Z,6.63
2022-09-10T13:23:04.044Z,6.27
2022-09-10T13:25:35.047Z,6.20
2022-09-10T13:28:02.670Z,6.60
2022-09-10T13:30:31.284Z,7.50
2022-09-10T13:32:59.887Z,7.17
2022-09-10T13:35:53.606Z,7.80
2022-09-10T13:38:27.325Z,9.27
2022-09-10T13:41:02.534Z,11.10
2022-09-10T13:43:42.094Z,11.40
2022-09-10T13:46:12.319Z,10.60
2022-09-10T13:48:44.507Z,9.97
2022-09-10T13:51:16.258Z,9.67
2022-09-10T13:53:45.928Z,9.27
2022-09-10T13:56:17.816Z,9.27
2022-09-10T13:58:48.383Z,9.83
2022-09-10T14:01:15.821Z,9.50
2022-09-10T14:03:44.872Z,10.03
2022-09-10T14:06:13.159Z,10.50
2022-09-10T14:08:43.939Z,10.93
2022-09-10T14:11:18.461Z,11.10
2022-09-10T14:13:48.366Z,11.40
2022-09-10T14:16:19.387Z,11.00
2022-09-10T14:18:48.700Z,11.37
2022-09-10T14:21:17.168Z,12.10
2022-09-10T14:23:45.219Z,12.30
2022-09-10T14:26:14.165Z,12.57
2022-09-10T14:28:56.357Z,13.37
2022-09-10T14:31:29.858Z,13.10
2022-09-10T14:33:57.876Z,13.30
2022-09-10T14:36:33.385Z,14.20
2022-09-10T14:39:03.929Z,14.63
2022-09-10T14:41:32.249Z,13.50
2022-09-10T14:44:16.089Z,14.23
2022-09-10T14:46:48.893Z,13.70
2022-09-10T14:49:17.157Z,14.47
2022-09-10T14:51:44.826Z,14.60
2022-09-10T14:54:14.800Z,14.10
2022-09-10T14:56:43.803Z,13.10
2022-09-10T14:59:16.295Z,13.30
2022-09-10T15:01:44.511Z,12.40
2022-09-10T15:04:13.885Z,12.63
2022-09-10T15:06:41.628Z,12.53
2022-09-10T15:09:09.086Z,12.17
2022-09-10T15:11:38.632Z,11.70
2022-09-10T15:14:06.091Z,11.50
2022-09-10T15:16:35.153Z,10.10
2022-09-10T15:19:02.579Z,10.83
2022-09-10T15:21:31.283Z,10.40
2022-09-10T15:23:58.680Z,10.03
2022-09-10T15:26:26.454Z,10.30
2022-09-10T15:28:53.878Z,10.30
2022-09-10T15:31:23.149Z,9.27
2022-09-10T15:33:52.943Z,9.83
2022-09-10T15:36:22.361Z,9.73
2022-09-10T15:38:51.403Z,9.73
2022-09-10T15:41:18.883Z,10.50
2022-09-10T15:43:46.279Z,9.90
2022-09-10T15:46:14.562Z,10.83
2022-09-10T15:48:43.183Z,10.50
2022-09-10T15:51:14.942Z,10.57
2022-09-10T15:53:43.135Z,10.60
2022-09-10T15:56:11.272Z,10.70
2022-09-10T15:58:38.986Z,11.83
2022-09-10T16:01:07.434Z,13.80
2022-09-10T16:03:35.418Z,11.00
2022-09-10T16:06:03.487Z,11.10
2022-09-10T16:08:32.354Z,11.40
2022-09-10T16:11:00.508Z,10.67
2022-09-10T16:13:28.062Z,11.30
2022-09-10T16:15:59.396Z,11.50
2022-09-10T16:18:27.274Z,11.00
2022-09-10T16:20:54.940Z,11.47
2022-09-10T16:23:22.510Z,11.40
2022-09-10T16:25:55.592Z,11.27
2022-09-10T16:28:22.951Z,10.43
2022-09-10T16:30:51.370Z,10.07
2022-09-10T16:33:18.808Z,9.60
2022-09-10T16:35:47.668Z,9.17
2022-09-10T16:38:15.071Z,9.97
2022-09-10T16:40:42.443Z,8.87
2022-09-10T16:43:11.184Z,9.20
2022-09-10T16:45:38.556Z,8.73
2022-09-10T16:48:06.066Z,9.30
2022-09-10T16:50:33.735Z,9.13
2022-09-10T16:53:02.641Z,9.20
2022-09-10T16:55:31.134Z,8.97
2022-09-10T16:57:58.570Z,9.30
2022-09-10T17:00:28.317Z,9.10
2022-09-10T17:02:56.430Z,8.67
2022-09-10T17:05:23.881Z,8.53
2022-09-10T17:07:51.672Z,9.40
2022-09-10T17:10:19.923Z,7.90
2022-09-10T17:12:47.308Z,8.60
2022-09-10T17:15:15.336Z,8.60
2022-09-10T17:17:44.055Z,8.20
2022-09-10T17:20:11.671Z,8.37
2022-09-10T17:22:39.048Z,7.83
2022-09-10T17:25:07.002Z,8.00
2022-09-10T17:27:34.932Z,7.90
2022-09-10T17:30:02.308Z,8.10
2022-09-10T17:32:29.643Z,7.93
2022-09-10T17:34:58.538Z,7.47
2022-09-10T17:37:26.052Z,8.00
2022-09-10T17:39:53.616Z,8.20
2022-09-10T17:42:21.088Z,7.70
2022-09-10T17:44:49.328Z,7.70
2022-09-10T17:47:16.727Z,7.90
2022-09-10T17:49:44.210Z,7.73
2022-09-10T17:52:14.526Z,7.73
2022-09-10T17:54:41.986Z,8.37
2022-09-10T17:57:09.328Z,8.40
2022-09-10T17:59:37.123Z,8.80
2022-09-10T18:02:05.017Z,8.70
2022-09-10T18:04:32.437Z,8.30
2022-09-10T18:07:01.032Z,8.00
2022-09-10T18:09:29.850Z,8.47
2022-09-10T18:11:57.683Z,8.57
2022-09-10T18:14:25.690Z,9.03
2022-09-10T18:16:54.008Z,9.13
2022-09-10T18:19:21.371Z,8.67
2022-09-10T18:21:49.318Z,9.63
2022-09-10T18:24:17.867Z,10.00
2022-09-10T18:26:47.455Z,9.77
2022-09-10T18:29:15.647Z,10.07
2022-09-10T18:31:43.844Z,9.70
2022-09-10T18:34:12.868Z,10.37
2022-09-10T18:36:40.335Z,10.00
2022-09-10T18:39:10.576Z,9.73
2022-09-10T18:41:38.731Z,10.93
2022-09-10T18:44:08.189Z,10.27
2022-09-10T18:46:36.459Z,11.20
2022-09-10T18:49:05.215Z,10.93
2022-09-10T18:51:32.633Z,10.97
2022-09-10T18:54:01.284Z,11.17
2022-09-10T18:56:30.314Z,11.87
2022-09-10T18:58:58.673Z,12.17
2022-09-10T19:01:28.488Z,12.07
2022-09-10T19:03:57.461Z,11.57
2022-09-10T19:06:26.059Z,12.37
2022-09-10T19:08:54.429Z,12.40
2022-09-10T19:11:22.479Z,12.00
2022-09-10T19:13:50.752Z,12.10
2022-09-10T19:16:19.103Z,13.00
2022-09-10T19:18:51.327Z,12.90
2022-09-10T19:21:20.111Z,13.60
2022-09-10T19:23:48.180Z,12.83
2022-09-10T19:26:15.633Z,13.53
2022-09-10T19:28:43.271Z,12.90
2022-09-10T19:31:12.230Z,13.97
2022-09-10T19:33:40.358Z,13.83
2022-09-10T19:36:10.214Z,13.37
2022-09-10T19:38:38.128Z,13.30
2022-09-10T19:41:06.752Z,13.93
2022-09-10T19:43:34.550Z,13.33
2022-09-10T19:46:01.989Z,12.80
2022-09-10T19:48:29.460Z,12.90
2022-09-10T19:50:56.826Z,14.43
2022-09-10T19:53:25.644Z,13.30
2022-09-10T19:55:53.000Z,12.87
2022-09-10T19:58:20.720Z,12.77
2022-09-10T20:00:48.119Z,13.17
2022-09-10T20:03:15.661Z,13.00
2022-09-10T20:05:44.418Z,14.33
2022-09-10T20:08:11.815Z,13.97
2022-09-10T20:10:40.508Z,13.60
2022-09-10T20:13:08.347Z,14.37
2022-09-10T20:15:43.527Z,13.23
2022-09-10T20:18:13.340Z,13.30
2022-09-10T20:20:40.830Z,14.00
2022-09-10T20:23:08.222Z,14.30
2022-09-10T20:25:37.406Z,14.27
2022-09-10T20:28:07.022Z,14.80
2022-09-10T20:30:35.071Z,14.73
2022-09-10T20:33:02.440Z,14.63
2022-09-10T20:35:30.217Z,15.03
2022-09-10T20:37:58.151Z,15.43
2022-09-10T20:40:25.539Z,15.50
2022-09-10T20:42:53.541Z,15.10
2022-09-10T20:45:22.305Z,14.57
2022-09-10T20:47:49.639Z,14.40
2022-09-10T20:50:17.074Z,15.60
2022-09-10T20:52:44.659Z,15.20
2022-09-10T20:55:12.035Z,16.03
2022-09-10T20:57:39.460Z,15.83
2022-09-10T21:00:08.183Z,16.13
2022-09-10T21:02:36.908Z,15.90
2022-09-10T21:05:05.234Z,16.63
2022-09-10T21:07:32.815Z,16.90
2022-09-10T21:10:00.299Z,15.90
2022-09-10T21:12:27.705Z,15.93
2022-09-10T21:14:55.056Z,17.10
2022-09-10T21:17:22.615Z,19.30
2022-09-10T21:19:51.343Z,17.50
2022-09-10T21:22:18.712Z,17.70
2022-09-10T21:24:46.087Z,17.73
2022-09-10T21:27:13.520Z,17.90
2022-09-10T21:29:40.894Z,17.30
2022-09-10T21:32:08.288Z,18.73
2022-09-10T21:34:35.713Z,17.17
2022-09-10T21:37:04.553Z,18.07
2022-09-10T21:39:31.903Z,16.83
2022-09-10T21:41:59.677Z,18.10
2022-09-10T21:44:27.068Z,18.27
2022-09-10T21:46:54.586Z,17.57
2022-09-10T21:49:21.982Z,18.27
2022-09-10T21:51:49.471Z,18.20
2022-09-10T21:54:20.537Z,17.23
2022-09-10T21:56:48.102Z,18.33
2022-09-10T21:59:16.052Z,18.10
2022-09-10T22:01:44.505Z,17.17
2022-09-10T22:04:12.585Z,17.80
2022-09-10T22:06:40.197Z,17.63
2022-09-10T22:09:08.600Z,17.50
2022-09-10T22:11:38.711Z,16.77
2022-09-10T22:14:06.954Z,17.60
2022-09-10T22:16:35.131Z,16.93
2022-09-10T22:19:03.439Z,17.50
2022-09-10T22:21:31.047Z,17.93
2022-09-10T22:23:58.532Z,18.20
2022-09-10T22:26:28.074Z,17.80
2022-09-10T22:28:59.156Z,17.10
2022-09-10T22:31:27.473Z,17.83
2022-09-10T22:33:55.447Z,18.00
2022-09-10T22:36:24.658Z,18.30
2022-09-10T22:38:52.829Z,17.50
2022-09-10T22:41:21.415Z,17.13
2022-09-10T22:43:48.820Z,16.27
2022-09-10T22:46:17.698Z,17.43
2022-09-10T22:48:46.174Z,17.10
2022-09-10T22:51:15.688Z,16.43
2022-09-10T22:53:43.704Z,17.00
2022-09-10T22:56:11.966Z,16.20
2022-09-10T22:58:39.569Z,16.83
2022-09-10T23:01:08.031Z,16.30
2022-09-10T23:03:36.940Z,17.10
2022-09-10T23:06:06.306Z,17.30
2022-09-10T23:08:34.411Z,17.87
2022-09-10T23:11:09.303Z,17.20
2022-09-10T23:13:36.983Z,16.77
2022-09-10T23:16:11.272Z,17.77
2022-09-10T23:18:40.641Z,16.83
2022-09-10T23:21:08.697Z,17.47
2022-09-10T23:23:36.444Z,16.30
2022-09-10T23:26:05.585Z,16.30
2022-09-10T23:28:33.214Z,15.90
2022-09-10T23:31:08.070Z,16.77
2022-09-10T23:33:35.518Z,16.50
2022-09-10T23:36:04.540Z,16.63
2022-09-10T23:38:32.391Z,16.63
2022-09-10T23:41:00.252Z,16.90
2022-09-10T23:43:27.845Z,17.10
2022-09-10T23:45:55.510Z,16.27
2022-09-10T23:48:23.930Z,16.40
2022-09-10T23:50:51.635Z,16.40
2022-09-10T23:53:21.026Z,16.17
2022-09-10T23:55:48.727Z,16.07
2022-09-10T23:58:16.993Z,16.30
